Details From EDDL - Duesseldorf
To ETNN - NORVENICH
Flight Number -
Tags generated
Created
Modified
Stats Distance 28 nm / 52 km
Max Altitude 2,400 ft / 732 m
Waypoints 3
Social Downloads 1
Likes 0
Share VATSIM

Download

Looking for another format? Having issues loading an existing format? Contact us
Advertisement - Login to hide

Notes

Basic altitude profile: - Ascent Rate: 2500ft/min - Ascent Speed: 250kts - Cruise Altitude: 6000ft - Cruise Speed: 420kts - Descent Rate: 1500ft/min - Descent Speed: 250kts Options: - Use NATs: yes - Use PACOTS: yes - Use low airways: yes - Use high airways: yes

Route

EDDL ELDAR ETNN

ID Type Via Altitude Latitude Longitude Leg Dist Tot Dist Heading (true) Name
O EDDL APT - 0 ft / 0 m 51.28942˚ 6.76664˚ - 0 nm - Duesseldorf
ELDAR FIX - 2,400 ft / 732 m 51.02306˚ 6.67944˚ 16 nm 16 nm 192° / 192° -
O ETNN APT - 0 ft / 0 m 50.83116˚ 6.65811˚ 11 nm 27 nm 184° / 184° NORVENICH

Altitude Profile

Advertisement - Login to hide

EDDL

Details ICAO EDDL (DUS)
Name Duesseldorf
Region Germany - Civil
Timezone Europe/Berlin (UTC+1.0)
Stats Elevation 146 ft / 45 m (AMSL)
Location 51.289419° 6.766637°
Runways 2
Magnetic Variation 1.808° E

METAR

EDDL 181520Z 12004KT 080V150 7000 SCT004 OVC005 03/02 Q1025 NOSIG

Decode

TAF

TAF EDDL 181100Z 1812/1918 VRB03KT 9000 BKN004 BECMG 1813/1816 BKN008 TEMPO 1816/1908 4500 BR BECMG 1823/1902 BKN020 BECMG 1906/1909 25005KT TEMPO 1908/1915 4000 -DZ BKN004

Decode

Departure Runways

ID Width Length Bearing (true) Bearing (mag) Surface Threshold Offset Overrun Length
05L 148 ft / 45 m 8,895 ft / 2,711 m 52.72° 50.91° Concrete 994 ft / 303 m 906 ft / 276 m
05R 148 ft / 45 m 9,858 ft / 3,005 m 52.68° 50.87° Concrete 984 ft / 300 m 659 ft / 201 m
23L 148 ft / 45 m 9,858 ft / 3,005 m 232.71° 230.90° Concrete 984 ft / 300 m 702 ft / 214 m
23R 148 ft / 45 m 8,895 ft / 2,711 m 232.75° 230.94° Concrete 971 ft / 296 m 928 ft / 283 m

ETNN

Details ICAO ETNN
Name NORVENICH
Region Germany - Military
Timezone Europe/Berlin (UTC+1.0)
Stats Elevation 386 ft / 118 m (AMSL)
Location 50.831161° 6.658110°
Runways 1
Magnetic Variation 1.788° E

METAR

ETNN 181420Z 15003KT 0700 R07/2500U FG BKN001 OVC002 03/02 Q1024 RED RED TEMPO YLO

Decode

TAF

Not found

Destination Runways

ID Width Length Bearing (true) Bearing (mag) Surface Threshold Offset Overrun Length
07 148 ft / 45 m 7,980 ft / 2,432 m 66.61° 64.82° Asphalt 0 ft / 0 m 902 ft / 275 m
25 148 ft / 45 m 7,980 ft / 2,432 m 246.63° 244.84° Asphalt 0 ft / 0 m 902 ft / 275 m